createdAt,value
2024-01-11T00:00:35.329Z,68.35
2024-01-11T00:03:02.578Z,81.22
2024-01-11T00:05:29.827Z,103.70
2024-01-11T00:07:57.393Z,90.28
2024-01-11T00:10:24.772Z,66.97
2024-01-11T00:12:52.028Z,78.88
2024-01-11T00:15:19.334Z,72.82
2024-01-11T00:17:47.177Z,65.30
2024-01-11T00:20:14.859Z,63.67
2024-01-11T00:22:42.091Z,59.17
2024-01-11T00:25:09.599Z,63.13
2024-01-11T00:27:37.006Z,64.10
2024-01-11T00:30:04.475Z,63.25
2024-01-11T00:32:31.923Z,59.85
2024-01-11T00:34:59.329Z,66.32
2024-01-11T00:37:26.578Z,65.90
2024-01-11T00:39:53.884Z,63.78
2024-01-11T00:42:21.157Z,63.35
2024-01-11T00:44:48.437Z,62.35
2024-01-11T00:47:15.972Z,62.67
2024-01-11T00:49:44.052Z,68.65
2024-01-11T00:52:14.665Z,59.28
2024-01-11T00:54:41.977Z,58.22
2024-01-11T00:57:09.332Z,55.75
2024-01-11T00:59:36.569Z,62.10
2024-01-11T01:02:03.921Z,60.80
2024-01-11T01:04:31.194Z,49.83
2024-01-11T01:06:58.531Z,58.80
2024-01-11T01:09:25.794Z,60.22
2024-01-11T01:11:53.168Z,64.57
2024-01-11T01:14:20.377Z,62.90
2024-01-11T01:16:47.625Z,80.88
2024-01-11T01:19:14.954Z,84.88
2024-01-11T01:21:42.182Z,132.45
2024-01-11T01:24:09.428Z,96.53
2024-01-11T01:26:36.732Z,65.05
2024-01-11T01:29:04.046Z,67.53
2024-01-11T01:31:31.375Z,65.95
2024-01-11T01:33:58.663Z,64.38
2024-01-11T01:36:26.032Z,61.80
2024-01-11T01:38:53.246Z,63.05
2024-01-11T01:41:20.542Z,60.42
2024-01-11T01:43:47.811Z,63.60
2024-01-11T01:46:20.305Z,66.80
2024-01-11T01:48:47.751Z,66.22
2024-01-11T01:51:15.582Z,71.68
2024-01-11T01:53:43.179Z,61.35
2024-01-11T01:56:10.615Z,64.97
2024-01-11T01:58:38.105Z,70.78
2024-01-11T02:01:06.649Z,63.50
2024-01-11T02:03:37.410Z,66.60
2024-01-11T02:06:06.955Z,69.70
2024-01-11T02:08:35.166Z,62.90
2024-01-11T02:11:02.692Z,67.72
2024-01-11T02:13:30.044Z,65.93
2024-01-11T02:15:57.282Z,59.13
2024-01-11T02:18:24.586Z,57.30
2024-01-11T02:20:51.947Z,67.53
2024-01-11T02:23:20.938Z,58.25
2024-01-11T02:25:48.213Z,66.95
2024-01-11T02:28:15.458Z,121.32
2024-01-11T02:30:43.904Z,82.60
2024-01-11T02:33:11.627Z,79.00
2024-01-11T02:35:42.969Z,78.43
2024-01-11T02:38:11.387Z,82.75
2024-01-11T02:40:39.323Z,89.78
2024-01-11T02:43:11.072Z,92.50
2024-01-11T02:45:38.506Z,84.25
2024-01-11T02:48:05.927Z,84.60
2024-01-11T02:50:33.240Z,79.75
2024-01-11T02:53:00.625Z,74.47
2024-01-11T02:55:27.964Z,75.72
2024-01-11T02:57:55.188Z,69.53
2024-01-11T03:00:22.421Z,68.72
2024-01-11T03:02:49.727Z,66.13
2024-01-11T03:05:17.006Z,66.95
2024-01-11T03:07:44.320Z,67.22
2024-01-11T03:10:11.909Z,62.13
2024-01-11T03:12:39.131Z,63.67
2024-01-11T03:15:06.571Z,66.30
2024-01-11T03:17:34.257Z,66.47
2024-01-11T03:20:01.646Z,61.80
2024-01-11T03:22:28.911Z,65.47
2024-01-11T03:24:56.109Z,70.97
2024-01-11T03:27:24.047Z,63.78
2024-01-11T03:29:51.297Z,60.65
2024-01-11T03:32:18.612Z,64.82
2024-01-11T03:34:45.948Z,63.67
2024-01-11T03:37:13.145Z,73.13
2024-01-11T03:39:40.359Z,67.07
2024-01-11T03:42:07.681Z,80.90
2024-01-11T03:44:34.952Z,89.57
2024-01-11T03:47:02.303Z,177.05
2024-01-11T03:49:29.512Z,71.93
2024-01-11T03:51:56.805Z,71.47
2024-01-11T03:54:24.213Z,71.50
2024-01-11T03:56:51.486Z,72.10
2024-01-11T03:59:18.773Z,70.90
2024-01-11T04:01:46.264Z,68.82
2024-01-11T04:04:13.611Z,71.32
2024-01-11T04:06:41.455Z,68.45
2024-01-11T04:09:08.774Z,72.47
2024-01-11T04:11:36.292Z,70.32
2024-01-11T04:14:03.666Z,66.47
2024-01-11T04:16:30.870Z,71.45
2024-01-11T04:18:58.141Z,66.20
2024-01-11T04:21:25.897Z,71.47
2024-01-11T04:23:53.232Z,69.70
2024-01-11T04:26:20.666Z,70.53
2024-01-11T04:28:48.957Z,73.03
2024-01-11T04:31:18.097Z,75.28
2024-01-11T04:33:46.182Z,68.78
2024-01-11T04:36:13.817Z,68.50
2024-01-11T04:38:41.200Z,70.40
2024-01-11T04:41:11.644Z,69.65
2024-01-11T04:43:40.373Z,67.18
2024-01-11T04:46:17.820Z,70.00
2024-01-11T04:48:45.491Z,71.75
2024-01-11T04:51:14.135Z,64.88
2024-01-11T04:53:41.693Z,68.05
2024-01-11T04:56:09.583Z,68.45
2024-01-11T04:58:38.965Z,72.20
2024-01-11T05:01:07.298Z,78.30
2024-01-11T05:03:34.741Z,69.60
2024-01-11T05:06:02.587Z,69.70
2024-01-11T05:08:30.636Z,63.03
2024-01-11T05:10:57.971Z,69.18
2024-01-11T05:13:25.158Z,66.88
2024-01-11T05:15:52.394Z,65.72
2024-01-11T05:18:19.653Z,68.65
2024-01-11T05:20:47.082Z,64.65
2024-01-11T05:23:14.341Z,70.93
2024-01-11T05:25:41.595Z,63.63
2024-01-11T05:28:08.760Z,68.03
2024-01-11T05:30:36.253Z,65.93
2024-01-11T05:33:04.179Z,64.82
2024-01-11T05:35:31.678Z,64.20
2024-01-11T05:37:58.914Z,73.53
2024-01-11T05:40:26.104Z,68.47
2024-01-11T05:42:53.498Z,68.22
2024-01-11T05:45:24.943Z,64.25
2024-01-11T05:47:54.844Z,68.93
2024-01-11T05:50:22.192Z,65.20
2024-01-11T05:52:49.980Z,72.25
2024-01-11T05:55:17.236Z,73.13
2024-01-11T05:57:44.414Z,68.75
2024-01-11T06:00:11.807Z,68.05
2024-01-11T06:02:39.136Z,65.80
2024-01-11T06:05:09.922Z,67.85
2024-01-11T06:07:37.449Z,69.80
2024-01-11T06:10:06.513Z,72.20
2024-01-11T06:12:34.222Z,67.28
2024-01-11T06:15:01.501Z,67.75
2024-01-11T06:17:28.895Z,68.85
2024-01-11T06:19:56.266Z,63.97
2024-01-11T06:22:23.499Z,61.80
2024-01-11T06:24:50.784Z,63.70
2024-01-11T06:27:18.061Z,59.65
2024-01-11T06:29:45.389Z,61.75
2024-01-11T06:32:12.826Z,63.72
2024-01-11T06:34:42.600Z,36.03
2024-01-11T06:37:09.919Z,59.80
2024-01-11T06:39:37.177Z,65.82
2024-01-11T06:42:04.572Z,61.08
2024-01-11T06:44:32.317Z,58.97
2024-01-11T06:46:59.571Z,62.60
2024-01-11T06:49:26.890Z,62.58
2024-01-11T06:51:54.200Z,59.08
2024-01-11T06:54:21.443Z,62.80
2024-01-11T06:56:48.685Z,62.88
2024-01-11T06:59:15.926Z,62.67
2024-01-11T07:01:46.939Z,62.50
2024-01-11T07:04:14.256Z,70.43
2024-01-11T07:06:41.591Z,63.08
2024-01-11T07:09:08.934Z,62.97
2024-01-11T07:11:36.235Z,66.68
2024-01-11T07:14:05.424Z,61.92
2024-01-11T07:16:32.679Z,80.32
2024-01-11T07:18:59.890Z,65.25
2024-01-11T07:21:33.162Z,61.45
2024-01-11T07:24:00.866Z,62.97
2024-01-11T07:26:28.453Z,62.33
2024-01-11T07:28:56.171Z,55.53
2024-01-11T07:31:23.511Z,58.20
2024-01-11T07:33:51.658Z,57.40
2024-01-11T07:36:19.084Z,56.75
2024-01-11T07:38:46.330Z,52.25
2024-01-11T07:41:13.638Z,55.95
2024-01-11T07:43:49.426Z,62.15
2024-01-11T07:46:29.143Z,47.67
2024-01-11T07:49:03.391Z,54.33
2024-01-11T07:51:30.635Z,56.63
2024-01-11T07:53:57.913Z,59.47
2024-01-11T07:56:25.158Z,62.47
2024-01-11T07:58:52.346Z,53.53
2024-01-11T08:01:19.679Z,60.70
2024-01-11T08:03:47.134Z,66.32
2024-01-11T08:06:14.636Z,68.07
2024-01-11T08:08:42.321Z,76.85
2024-01-11T08:11:09.914Z,74.55
2024-01-11T08:13:39.087Z,60.70
2024-01-11T08:16:10.929Z,51.38
2024-01-11T08:18:38.249Z,56.45
2024-01-11T08:21:10.612Z,56.33
2024-01-11T08:26:05.196Z,55.22
2024-01-11T08:28:33.324Z,48.10
2024-01-11T08:31:00.651Z,48.92
2024-01-11T08:33:28.141Z,47.22
2024-01-11T08:35:55.500Z,50.15
2024-01-11T08:38:22.871Z,55.30
2024-01-11T08:40:50.117Z,51.53
2024-01-11T08:43:17.339Z,49.90
2024-01-11T08:45:44.811Z,48.65
2024-01-11T08:48:14.525Z,46.13
2024-01-11T08:50:42.259Z,48.60
2024-01-11T08:53:09.571Z,49.38
2024-01-11T08:55:36.860Z,48.90
2024-01-11T08:58:05.121Z,49.70
2024-01-11T09:00:32.443Z,52.95
2024-01-11T09:02:59.704Z,51.22
2024-01-11T09:05:27.026Z,45.97
2024-01-11T09:07:54.612Z,45.20
2024-01-11T09:10:21.953Z,45.88
2024-01-11T09:12:49.309Z,49.83
2024-01-11T09:15:16.548Z,47.72
2024-01-11T09:17:43.791Z,43.70
2024-01-11T09:20:15.444Z,46.47
2024-01-11T09:22:42.955Z,43.50
2024-01-11T09:25:10.852Z,48.35
2024-01-11T09:27:38.189Z,50.38
2024-01-11T09:30:05.868Z,51.35
2024-01-11T09:32:33.327Z,39.25
2024-01-11T09:35:00.878Z,50.25
2024-01-11T09:37:28.262Z,44.95
2024-01-11T09:39:55.508Z,50.78
2024-01-11T09:42:23.021Z,36.80
2024-01-11T09:44:50.324Z,45.92
2024-01-11T09:47:19.084Z,47.20
2024-01-11T09:49:47.073Z,48.58
2024-01-11T09:52:15.972Z,49.00
2024-01-11T09:54:43.515Z,43.85
2024-01-11T09:57:11.636Z,47.35
2024-01-11T09:59:39.265Z,49.05
2024-01-11T10:02:09.696Z,42.78
2024-01-11T10:04:38.454Z,49.47
2024-01-11T10:07:07.884Z,47.10
2024-01-11T10:09:35.157Z,51.67
2024-01-11T10:12:02.473Z,41.38
2024-01-11T10:14:29.741Z,46.78
2024-01-11T10:16:57.028Z,44.40
2024-01-11T10:19:24.443Z,48.92
2024-01-11T10:21:51.815Z,45.85
2024-01-11T10:24:21.560Z,45.20
2024-01-11T10:26:49.144Z,49.42
2024-01-11T10:29:16.470Z,41.15
2024-01-11T10:31:43.798Z,47.38
2024-01-11T10:34:12.080Z,44.03
2024-01-11T10:36:39.487Z,48.10
2024-01-11T10:39:08.939Z,42.95
2024-01-11T10:41:41.581Z,37.85
2024-01-11T10:44:13.014Z,43.45
2024-01-11T10:46:40.613Z,38.92
2024-01-11T10:49:08.350Z,48.60
2024-01-11T10:51:35.616Z,44.22
2024-01-11T10:54:03.544Z,37.05
2024-01-11T10:56:31.971Z,48.55
2024-01-11T10:58:59.572Z,38.97
2024-01-11T11:01:26.812Z,38.75
2024-01-11T11:03:54.719Z,38.20
2024-01-11T11:06:22.222Z,42.67
2024-01-11T11:08:49.704Z,40.17
2024-01-11T11:11:17.495Z,41.25
2024-01-11T11:14:02.504Z,42.30
2024-01-11T11:16:30.726Z,43.28
2024-01-11T11:18:58.315Z,34.70
2024-01-11T11:21:26.071Z,48.75
2024-01-11T11:23:53.374Z,38.08
2024-01-11T11:26:20.851Z,39.55
2024-01-11T11:28:52.211Z,36.90
2024-01-11T11:31:38.307Z,41.85
2024-01-11T11:34:06.173Z,42.05
2024-01-11T11:36:35.040Z,43.30
2024-01-11T11:39:03.096Z,50.88
2024-01-11T11:41:33.100Z,34.83
2024-01-11T11:44:04.458Z,42.40
2024-01-11T11:46:32.549Z,37.10
2024-01-11T11:49:00.002Z,38.67
2024-01-11T11:51:29.235Z,36.72
2024-01-11T11:53:56.863Z,37.55
2024-01-11T11:56:25.073Z,41.47
2024-01-11T11:58:54.190Z,43.47
2024-01-11T12:01:21.740Z,38.97
2024-01-11T12:03:51.855Z,41.30
2024-01-11T12:06:20.273Z,37.47
2024-01-11T12:08:48.542Z,42.22
2024-01-11T12:11:22.697Z,40.72
2024-01-11T12:13:51.077Z,36.90
2024-01-11T12:16:18.390Z,50.53
2024-01-11T12:18:47.024Z,60.63
2024-01-11T12:21:14.412Z,52.50
2024-01-11T12:23:43.242Z,50.58
2024-01-11T12:26:14.963Z,42.53
2024-01-11T12:28:44.008Z,38.47
2024-01-11T12:31:11.636Z,40.55
2024-01-11T12:33:42.749Z,37.53
2024-01-11T12:36:11.898Z,34.72
2024-01-11T12:38:40.683Z,39.58
2024-01-11T12:41:08.610Z,35.65
2024-01-11T12:43:36.046Z,33.70
2024-01-11T12:46:03.968Z,37.75
2024-01-11T12:48:31.934Z,43.40
2024-01-11T12:51:10.455Z,33.55
2024-01-11T12:53:46.963Z,32.88
2024-01-11T12:56:16.503Z,34.15
2024-01-11T12:58:44.538Z,33.08
2024-01-11T13:01:12.716Z,38.22
2024-01-11T13:03:41.083Z,37.42
2024-01-11T13:06:10.278Z,37.75
2024-01-11T13:08:38.760Z,35.72
2024-01-11T13:11:09.581Z,36.85
2024-01-11T13:13:37.037Z,40.00
2024-01-11T13:16:07.762Z,39.28
2024-01-11T13:18:35.037Z,38.80
2024-01-11T13:21:04.040Z,39.25
2024-01-11T13:23:32.246Z,38.83
2024-01-11T13:25:59.564Z,40.08
2024-01-11T13:28:28.090Z,35.95
2024-01-11T13:30:56.303Z,39.97
2024-01-11T13:33:25.354Z,36.40
2024-01-11T13:35:53.298Z,39.00
2024-01-11T13:38:24.281Z,49.97
2024-01-11T13:40:52.583Z,38.53
2024-01-11T13:43:19.862Z,37.55
2024-01-11T13:45:47.331Z,38.22
2024-01-11T13:48:14.725Z,40.15
2024-01-11T13:50:42.223Z,37.33
2024-01-11T13:53:09.666Z,40.55
2024-01-11T13:55:41.012Z,46.95
2024-01-11T13:58:09.253Z,51.10
2024-01-11T14:00:36.832Z,43.90
2024-01-11T14:03:06.462Z,45.03
2024-01-11T14:05:34.157Z,53.13
2024-01-11T14:08:02.429Z,49.00
2024-01-11T14:10:30.073Z,44.95
2024-01-11T14:12:57.323Z,45.22
2024-01-11T14:15:27.419Z,45.28
2024-01-11T14:17:54.863Z,44.90
2024-01-11T14:20:22.761Z,43.75
2024-01-11T14:22:52.222Z,38.33
2024-01-11T14:25:23.602Z,46.75
2024-01-11T14:27:50.949Z,47.70
2024-01-11T14:30:18.740Z,41.88
2024-01-11T14:32:47.088Z,39.22
2024-01-11T14:35:14.799Z,41.17
2024-01-11T14:37:44.058Z,43.88
2024-01-11T14:40:14.610Z,38.40
2024-01-11T14:42:42.401Z,41.58
2024-01-11T14:45:10.059Z,38.15
2024-01-11T14:47:37.525Z,38.28
2024-01-11T14:50:05.768Z,38.35
2024-01-11T14:52:33.495Z,38.15
2024-01-11T14:55:00.980Z,43.15
2024-01-11T14:57:28.462Z,38.47
2024-01-11T14:59:55.775Z,43.33
2024-01-11T15:02:23.222Z,43.08
2024-01-11T15:04:50.906Z,41.20
2024-01-11T15:07:18.243Z,39.83
2024-01-11T15:09:45.498Z,42.53
2024-01-11T15:12:12.659Z,43.08
2024-01-11T15:14:39.935Z,48.40
2024-01-11T15:17:07.309Z,48.28
2024-01-11T15:19:34.577Z,46.38
2024-01-11T15:22:01.879Z,46.85
2024-01-11T15:24:29.954Z,55.35
2024-01-11T15:26:57.461Z,63.20
2024-01-11T15:29:25.006Z,88.03
2024-01-11T15:31:52.653Z,81.28
2024-01-11T15:34:20.621Z,139.98
2024-01-11T15:36:48.250Z,113.95
2024-01-11T15:39:25.077Z,127.38
2024-01-11T15:41:57.157Z,86.57
2024-01-11T15:44:27.509Z,77.20
2024-01-11T15:46:55.069Z,56.22
2024-01-11T15:49:22.617Z,58.45
2024-01-11T15:51:50.295Z,66.60
2024-01-11T15:54:17.589Z,67.40
2024-01-11T15:56:44.828Z,62.10
2024-01-11T15:59:12.149Z,67.80
2024-01-11T16:01:51.155Z,63.17
2024-01-11T16:04:27.534Z,63.17
2024-01-11T16:06:55.303Z,64.15
2024-01-11T16:09:22.708Z,71.47
2024-01-11T16:11:50.989Z,72.05
2024-01-11T16:14:18.447Z,68.65
2024-01-11T16:16:45.638Z,65.55
2024-01-11T16:19:12.954Z,58.58
2024-01-11T16:21:40.458Z,64.05
2024-01-11T16:24:08.601Z,60.45
2024-01-11T16:26:36.391Z,58.25
2024-01-11T16:29:03.868Z,72.80
2024-01-11T16:31:31.198Z,107.30
2024-01-11T16:33:58.478Z,103.35
2024-01-11T16:36:25.818Z,74.30
2024-01-11T16:38:53.327Z,71.95
2024-01-11T16:41:20.953Z,67.55
2024-01-11T16:43:48.315Z,66.75
2024-01-11T16:46:23.525Z,65.38
2024-01-11T16:48:52.035Z,60.45
2024-01-11T16:51:20.309Z,64.75
2024-01-11T16:53:47.897Z,62.85
2024-01-11T16:56:15.310Z,66.78
2024-01-11T16:58:43.190Z,68.07
2024-01-11T17:01:11.981Z,69.00
2024-01-11T17:03:39.774Z,65.32
2024-01-11T17:06:07.170Z,69.93
2024-01-11T17:08:34.552Z,68.03
2024-01-11T17:11:01.916Z,71.10
2024-01-11T17:13:29.149Z,62.75
2024-01-11T17:15:56.421Z,67.05
2024-01-11T17:18:24.151Z,69.45
2024-01-11T17:20:52.239Z,62.00
2024-01-11T17:23:19.852Z,63.05
2024-01-11T17:25:47.770Z,60.83
2024-01-11T17:28:14.938Z,61.28
2024-01-11T17:30:42.306Z,66.50
2024-01-11T17:33:10.180Z,68.50
2024-01-11T17:35:37.752Z,76.35
2024-01-11T17:38:05.241Z,75.75
2024-01-11T17:40:34.614Z,82.30
2024-01-11T17:43:03.282Z,79.72
2024-01-11T17:45:30.540Z,86.85
2024-01-11T17:47:58.321Z,80.70
2024-01-11T17:50:25.934Z,92.80
2024-01-11T17:52:53.322Z,107.47
2024-01-11T17:55:21.731Z,90.88
2024-01-11T17:57:49.185Z,85.40
2024-01-11T18:00:16.563Z,91.90
2024-01-11T18:02:43.801Z,88.30
2024-01-11T18:05:11.251Z,98.85
2024-01-11T18:07:38.726Z,93.60
2024-01-11T18:10:06.733Z,92.93
2024-01-11T18:12:33.978Z,91.90
2024-01-11T18:15:01.633Z,94.10
2024-01-11T18:17:29.077Z,93.60
2024-01-11T18:19:56.390Z,97.15
2024-01-11T18:22:25.346Z,99.65
2024-01-11T18:24:52.639Z,119.63
2024-01-11T18:27:21.101Z,104.28
2024-01-11T18:29:48.783Z,112.10
2024-01-11T18:32:16.164Z,116.30
2024-01-11T18:34:43.462Z,102.72
2024-01-11T18:37:10.689Z,89.57
2024-01-11T18:39:39.862Z,83.68
2024-01-11T18:42:07.872Z,79.68
2024-01-11T18:44:35.196Z,82.47
2024-01-11T18:47:02.662Z,73.80
2024-01-11T18:49:30.086Z,91.20
2024-01-11T18:51:57.426Z,97.88
2024-01-11T18:54:24.864Z,97.30
2024-01-11T18:56:52.312Z,89.38
2024-01-11T18:59:19.878Z,82.88
2024-01-11T19:01:48.142Z,88.22
2024-01-11T19:04:15.972Z,89.30
2024-01-11T19:06:46.289Z,102.40
2024-01-11T19:09:13.767Z,115.40
2024-01-11T19:11:41.164Z,90.93
2024-01-11T19:14:11.053Z,78.75
2024-01-11T19:16:38.452Z,79.88
2024-01-11T19:19:05.929Z,79.43
2024-01-11T19:21:33.232Z,94.30
2024-01-11T19:24:02.040Z,97.32
2024-01-11T19:26:29.407Z,100.55
2024-01-11T19:28:56.694Z,96.55
2024-01-11T19:31:23.998Z,92.47
2024-01-11T19:33:52.737Z,90.82
2024-01-11T19:36:20.151Z,78.18
2024-01-11T19:38:47.414Z,83.65
2024-01-11T19:41:14.786Z,79.00
2024-01-11T19:43:47.177Z,78.03
2024-01-11T19:46:18.399Z,84.88
2024-01-11T19:48:45.806Z,91.88
2024-01-11T19:51:13.967Z,82.93
2024-01-11T19:53:41.226Z,87.65
2024-01-11T19:56:21.547Z,87.15
2024-01-11T19:58:49.256Z,88.93
2024-01-11T20:01:16.822Z,92.00
2024-01-11T20:03:44.452Z,106.85
2024-01-11T20:06:12.006Z,110.68
2024-01-11T20:08:40.038Z,112.22
2024-01-11T20:11:11.252Z,111.85
2024-01-11T20:13:38.526Z,104.07
2024-01-11T20:16:06.037Z,96.43
2024-01-11T20:18:33.710Z,90.47
2024-01-11T20:21:01.549Z,94.68
2024-01-11T20:23:28.859Z,92.80
2024-01-11T20:25:58.230Z,105.70
2024-01-11T20:28:25.564Z,102.85
2024-01-11T20:30:52.837Z,97.70
2024-01-11T20:33:20.349Z,93.68
2024-01-11T20:35:47.909Z,88.75
2024-01-11T20:38:15.818Z,84.18
2024-01-11T20:40:43.067Z,81.85
2024-01-11T20:43:10.928Z,84.90
2024-01-11T20:45:38.173Z,79.85
2024-01-11T20:48:05.708Z,80.53
2024-01-11T20:50:33.129Z,81.10
2024-01-11T20:53:02.826Z,75.00
2024-01-11T20:55:30.020Z,71.15
2024-01-11T20:57:57.268Z,81.43
2024-01-11T21:00:25.113Z,78.43
2024-01-11T21:02:52.460Z,79.80
2024-01-11T21:05:20.767Z,103.07
2024-01-11T21:07:48.176Z,92.40
2024-01-11T21:10:15.392Z,79.45
2024-01-11T21:12:42.596Z,71.60
2024-01-11T21:15:10.321Z,74.07
2024-01-11T21:17:37.939Z,70.70
2024-01-11T21:20:06.409Z,72.47
2024-01-11T21:22:33.668Z,67.85
2024-01-11T21:25:01.025Z,66.20
2024-01-11T21:27:28.284Z,66.38
2024-01-11T21:29:56.026Z,74.28
2024-01-11T21:32:23.471Z,73.07
2024-01-11T21:34:50.763Z,69.90
2024-01-11T21:37:18.017Z,73.15
2024-01-11T21:39:45.302Z,81.03
2024-01-11T21:42:12.572Z,83.20
2024-01-11T21:44:39.916Z,70.03
2024-01-11T21:47:07.150Z,73.25
2024-01-11T21:49:34.778Z,76.53
2024-01-11T21:52:02.002Z,68.72
2024-01-11T21:54:29.247Z,71.65
2024-01-11T21:56:59.154Z,72.65
2024-01-11T21:59:26.520Z,64.50
2024-01-11T22:01:53.831Z,66.85
2024-01-11T22:04:21.121Z,66.57
2024-01-11T22:06:48.544Z,68.60
2024-01-11T22:09:16.257Z,65.90
2024-01-11T22:11:43.594Z,74.60
2024-01-11T22:14:11.313Z,78.25
2024-01-11T22:16:38.602Z,66.95
2024-01-11T22:19:07.940Z,68.30
2024-01-11T22:21:35.451Z,65.13
2024-01-11T22:24:03.230Z,78.30
2024-01-11T22:26:30.558Z,70.72
2024-01-11T22:28:58.029Z,77.47
2024-01-11T22:31:25.297Z,77.85
2024-01-11T22:33:52.695Z,74.57
2024-01-11T22:36:20.152Z,73.90
2024-01-11T22:38:47.349Z,82.45
2024-01-11T22:41:15.530Z,88.00
2024-01-11T22:43:42.868Z,87.47
2024-01-11T22:46:10.434Z,83.90
2024-01-11T22:48:38.303Z,93.25
2024-01-11T22:51:05.675Z,85.50
2024-01-11T22:53:32.940Z,83.55
2024-01-11T22:56:00.364Z,80.15
2024-01-11T22:58:27.568Z,85.38
2024-01-11T23:00:56.538Z,87.82
2024-01-11T23:03:25.723Z,76.53
2024-01-11T23:05:53.117Z,76.55
2024-01-11T23:08:20.475Z,68.35
2024-01-11T23:10:47.831Z,66.50
2024-01-11T23:13:15.050Z,50.80
2024-01-11T23:15:42.253Z,60.45
2024-01-11T23:18:09.729Z,56.78
2024-01-11T23:20:37.152Z,61.90
2024-01-11T23:23:04.494Z,55.00
2024-01-11T23:25:34.033Z,55.67
2024-01-11T23:28:01.540Z,52.50
2024-01-11T23:30:28.848Z,56.05
2024-01-11T23:32:56.122Z,52.50
2024-01-11T23:35:23.422Z,54.47
2024-01-11T23:37:50.766Z,48.42
2024-01-11T23:40:18.036Z,48.53
2024-01-11T23:42:45.282Z,56.13
2024-01-11T23:45:12.566Z,47.78
2024-01-11T23:47:39.814Z,50.67
2024-01-11T23:50:07.577Z,48.50
2024-01-11T23:52:34.877Z,49.22
2024-01-11T23:55:02.128Z,48.45
2024-01-11T23:57:29.335Z,48.08
2024-01-11T23:59:56.607Z,48.83
